Macks Creek, Missouri
Current Conditions -  °F | °C
As of 4:55 AM on Thursday 23 Oct 2014 (Local Time) from KH21 Reporting Station
Clear Clear  
Wind Chill: 44°   Ceiling: Unl
Heat Index: 46°   Visibility: 10mi
Dew Point: 43°   Wind: 6mph
Humidity: 87%   Direction: 140°SE
Pressure: 30.17"   Gusts: NA
Location:  37.97°N, 92.97°W
Report Text: KH21 230955Z AUTO 14005KT 10SM CLR 08/06 A3017 RMK AO2
Loading
Personal Weather Stations






























Interactive Weather Map
Tropical Storm Tracking
New forecast layout! Learn more

10-Day Weather Forecast

Advertisements
Track Severe Weather on mobile